createdAt,value
2019-02-27T00:00:14.729Z,5.90
2019-02-27T00:02:43.844Z,5.90
2019-02-27T00:05:13.001Z,5.80
2019-02-27T00:07:42.101Z,5.90
2019-02-27T00:10:11.213Z,5.90
2019-02-27T00:12:40.316Z,5.80
2019-02-27T00:15:09.462Z,5.80
2019-02-27T00:17:38.650Z,5.80
2019-02-27T00:20:08.004Z,5.80
2019-02-27T00:22:37.117Z,5.70
2019-02-27T00:25:06.494Z,5.70
2019-02-27T00:27:35.596Z,5.70
2019-02-27T00:30:05.876Z,5.70
2019-02-27T00:32:35.213Z,5.60
2019-02-27T00:35:07.243Z,5.60
2019-02-27T00:37:35.374Z,5.60
2019-02-27T00:40:05.618Z,5.50
2019-02-27T00:42:35.413Z,5.50
2019-02-27T00:45:06.820Z,5.50
2019-02-27T00:47:35.497Z,5.50
2019-02-27T00:50:06.591Z,5.50
2019-02-27T00:52:35.865Z,5.40
2019-02-27T00:55:05.709Z,5.40
2019-02-27T00:57:34.826Z,5.50
2019-02-27T01:00:06.413Z,5.40
2019-02-27T01:02:35.010Z,5.40
2019-02-27T01:05:06.264Z,5.40
2019-02-27T01:07:35.206Z,5.40
2019-02-27T01:10:05.045Z,5.30
2019-02-27T01:12:34.195Z,5.20
2019-02-27T01:15:03.443Z,5.20
2019-02-27T01:17:32.546Z,5.30
2019-02-27T01:20:01.682Z,5.30
2019-02-27T01:22:30.801Z,5.20
2019-02-27T01:24:59.933Z,5.20
2019-02-27T01:27:29.109Z,5.20
2019-02-27T01:29:58.217Z,5.20
2019-02-27T01:32:28.905Z,5.20
2019-02-27T01:34:58.273Z,5.20
2019-02-27T01:37:31.453Z,5.10
2019-02-27T01:39:58.226Z,5.10
2019-02-27T01:42:31.982Z,5.10
2019-02-27T01:44:58.193Z,5.10
2019-02-27T01:47:27.307Z,5.20
2019-02-27T01:49:56.501Z,5.10
2019-02-27T01:52:25.629Z,5.10
2019-02-27T01:54:54.749Z,5.10
2019-02-27T01:57:23.885Z,5.00
2019-02-27T01:59:53.011Z,5.00
2019-02-27T02:02:22.117Z,5.00
2019-02-27T02:04:53.812Z,5.00
2019-02-27T02:07:22.099Z,5.00
2019-02-27T02:09:55.080Z,4.90
2019-02-27T02:12:26.702Z,4.90
2019-02-27T02:15:32.870Z,4.90
2019-02-27T02:18:40.215Z,4.90
2019-02-27T02:21:41.449Z,4.80
2019-02-27T02:24:56.902Z,4.80
2019-02-27T02:28:25.037Z,4.70
2019-02-27T02:31:32.376Z,4.80
2019-02-27T02:34:51.770Z,4.80
2019-02-27T02:37:55.792Z,4.70
2019-02-27T02:40:53.487Z,4.70
2019-02-27T02:44:20.997Z,4.70
2019-02-27T02:47:00.283Z,4.70
2019-02-27T02:49:56.172Z,4.70
2019-02-27T02:52:51.792Z,4.70
2019-02-27T02:55:56.317Z,4.70
2019-02-27T02:59:02.434Z,4.70
2019-02-27T03:01:56.712Z,4.70
2019-02-27T03:05:23.220Z,4.70
2019-02-27T03:08:20.261Z,4.60
2019-02-27T03:11:27.600Z,4.60
2019-02-27T03:14:24.619Z,4.60
2019-02-27T03:17:31.667Z,4.60
2019-02-27T03:20:20.774Z,4.50
2019-02-27T03:23:23.927Z,4.50
2019-02-27T03:26:51.899Z,4.50
2019-02-27T03:29:53.390Z,4.50
2019-02-27T03:32:43.333Z,4.50
2019-02-27T03:35:29.152Z,4.40
2019-02-27T03:38:24.932Z,4.40
2019-02-27T03:41:22.499Z,4.30
2019-02-27T03:44:08.797Z,4.40
2019-02-27T03:47:15.570Z,4.40
2019-02-27T03:50:15.666Z,4.30
2019-02-27T03:53:20.084Z,4.20
2019-02-27T03:56:29.077Z,4.30
2019-02-27T03:59:10.359Z,4.30
2019-02-27T04:02:11.042Z,4.20
2019-02-27T04:05:23.117Z,4.20
2019-02-27T04:08:08.316Z,4.20
2019-02-27T04:10:37.594Z,4.30
2019-02-27T04:13:06.690Z,4.30
2019-02-27T04:15:36.151Z,4.30
2019-02-27T04:18:03.851Z,4.30
2019-02-27T04:20:32.955Z,4.30
2019-02-27T04:23:02.083Z,4.20
2019-02-27T04:25:32.278Z,4.10
2019-02-27T04:28:01.594Z,4.10
2019-02-27T04:30:30.738Z,4.10
2019-02-27T04:32:59.855Z,4.00
2019-02-27T04:35:28.972Z,4.10
2019-02-27T04:37:58.141Z,4.00
2019-02-27T04:40:27.249Z,4.00
2019-02-27T04:42:57.010Z,4.00
2019-02-27T04:45:27.249Z,4.00
2019-02-27T04:47:56.358Z,4.00
2019-02-27T04:50:25.467Z,4.00
2019-02-27T04:52:57.676Z,4.00
2019-02-27T04:55:25.525Z,4.00
2019-02-27T04:57:54.616Z,4.00
2019-02-27T05:00:26.103Z,4.00
2019-02-27T05:02:54.637Z,4.00
2019-02-27T05:05:23.761Z,3.90
2019-02-27T05:07:54.330Z,3.90
2019-02-27T05:10:23.748Z,3.90
2019-02-27T05:12:52.881Z,4.00
2019-02-27T05:15:22.011Z,4.00
2019-02-27T05:17:55.307Z,3.90
2019-02-27T05:20:22.016Z,3.90
2019-02-27T05:22:51.129Z,3.90
2019-02-27T05:25:20.241Z,4.00
2019-02-27T05:27:49.357Z,3.90
2019-02-27T05:30:18.630Z,3.90
2019-02-27T05:32:47.821Z,3.90
2019-02-27T05:35:16.962Z,4.00
2019-02-27T05:37:46.058Z,4.00
2019-02-27T05:40:15.184Z,4.00
2019-02-27T05:42:44.285Z,3.90
2019-02-27T05:45:13.645Z,3.90
2019-02-27T05:47:45.646Z,3.90
2019-02-27T05:50:13.625Z,3.80
2019-02-27T05:52:42.720Z,3.80
2019-02-27T05:55:11.979Z,3.80
2019-02-27T05:57:41.093Z,3.80
2019-02-27T06:00:15.513Z,3.70
2019-02-27T06:02:44.989Z,3.70
2019-02-27T06:05:14.937Z,3.70
2019-02-27T06:07:44.086Z,3.60
2019-02-27T06:10:14.365Z,3.70
2019-02-27T06:12:43.685Z,3.70
2019-02-27T06:15:14.914Z,3.70
2019-02-27T06:17:48.810Z,3.70
2019-02-27T06:20:15.009Z,3.70
2019-02-27T06:22:44.161Z,3.70
2019-02-27T06:25:21.945Z,3.80
2019-02-27T06:27:46.509Z,3.80
2019-02-27T06:30:17.311Z,3.70
2019-02-27T06:32:47.310Z,3.70
2019-02-27T06:35:16.701Z,3.70
2019-02-27T06:37:50.463Z,3.70
2019-02-27T06:40:18.192Z,3.80
2019-02-27T06:42:52.528Z,3.70
2019-02-27T06:45:19.352Z,3.70
2019-02-27T06:47:48.510Z,3.70
2019-02-27T06:50:17.730Z,3.70
2019-02-27T06:52:46.867Z,3.70
2019-02-27T06:55:16.679Z,3.70
2019-02-27T06:57:45.823Z,3.70
2019-02-27T07:00:19.151Z,3.70
2019-02-27T07:02:48.273Z,3.60
2019-02-27T07:05:17.405Z,3.70
2019-02-27T07:07:48.632Z,3.60
2019-02-27T07:10:19.951Z,3.50
2019-02-27T07:12:48.638Z,3.60
2019-02-27T07:15:18.350Z,3.60
2019-02-27T07:17:47.449Z,3.70
2019-02-27T07:20:16.690Z,3.70
2019-02-27T07:22:46.791Z,3.80
2019-02-27T07:25:16.205Z,3.90
2019-02-27T07:27:45.355Z,4.00
2019-02-27T07:30:17.889Z,4.10
2019-02-27T07:32:47.095Z,4.10
2019-02-27T07:35:17.913Z,4.10
2019-02-27T07:37:48.179Z,4.20
2019-02-27T07:40:17.649Z,4.30
2019-02-27T07:42:47.431Z,4.40
2019-02-27T07:45:17.389Z,4.40
2019-02-27T07:47:46.499Z,4.40
2019-02-27T07:50:16.304Z,4.40
2019-02-27T07:52:45.400Z,4.40
2019-02-27T07:55:21.679Z,4.50
2019-02-27T07:57:45.934Z,4.60
2019-02-27T08:00:17.007Z,4.70
2019-02-27T08:02:46.309Z,4.90
2019-02-27T08:05:15.769Z,4.90
2019-02-27T08:07:48.651Z,5.00
2019-02-27T08:10:17.806Z,5.10
2019-02-27T08:12:48.613Z,5.20
2019-02-27T08:15:19.407Z,5.30
2019-02-27T08:17:48.567Z,5.40
2019-02-27T08:20:20.136Z,5.40
2019-02-27T08:22:49.630Z,5.50
2019-02-27T08:25:19.206Z,5.60
2019-02-27T08:27:48.450Z,5.70
2019-02-27T08:30:19.297Z,5.80
2019-02-27T08:32:48.578Z,6.00
2019-02-27T08:35:17.846Z,6.10
2019-02-27T08:37:47.293Z,6.10
2019-02-27T08:40:16.394Z,6.10
2019-02-27T08:42:45.568Z,6.20
2019-02-27T08:45:19.687Z,6.20
2019-02-27T08:47:45.657Z,6.10
2019-02-27T08:50:15.825Z,6.20
2019-02-27T08:52:50.557Z,6.20
2019-02-27T08:55:19.960Z,6.30
2019-02-27T08:57:49.766Z,6.30
2019-02-27T09:00:20.465Z,6.20
2019-02-27T09:02:49.559Z,6.10
2019-02-27T09:05:20.062Z,6.20
2019-02-27T09:07:49.562Z,6.20
2019-02-27T09:10:18.759Z,6.30
2019-02-27T09:12:48.916Z,6.30
2019-02-27T09:15:18.399Z,6.70
2019-02-27T09:17:47.637Z,6.80
2019-02-27T09:20:19.585Z,6.90
2019-02-27T09:22:47.810Z,7.10
2019-02-27T09:25:16.953Z,7.30
2019-02-27T09:27:46.068Z,7.50
2019-02-27T09:30:16.074Z,7.40
2019-02-27T09:32:46.017Z,7.10
2019-02-27T09:35:15.505Z,6.90
2019-02-27T09:37:44.706Z,6.90
2019-02-27T09:40:16.092Z,7.00
2019-02-27T09:42:45.222Z,7.30
2019-02-27T09:45:34.700Z,7.60
2019-02-27T09:48:04.085Z,7.70
2019-02-27T09:50:35.153Z,7.90
2019-02-27T09:53:04.574Z,8.30
2019-02-27T09:55:33.745Z,8.30
2019-02-27T09:58:02.913Z,8.20
2019-02-27T10:00:34.007Z,8.30
2019-02-27T10:03:03.246Z,8.30
2019-02-27T10:05:36.316Z,8.40
2019-02-27T10:08:04.713Z,8.30
2019-02-27T10:10:33.881Z,8.20
2019-02-27T10:13:04.000Z,8.10
2019-02-27T10:15:34.441Z,8.10
2019-02-27T10:18:03.770Z,7.90
2019-02-27T10:20:36.861Z,7.80
2019-02-27T10:23:03.766Z,7.70
2019-02-27T10:25:33.068Z,7.70
2019-02-27T10:28:04.360Z,7.60
2019-02-27T10:30:33.081Z,7.60
2019-02-27T10:33:03.371Z,7.70
2019-02-27T10:35:34.734Z,7.80
2019-02-27T10:38:03.913Z,8.10
2019-02-27T10:40:33.113Z,8.40
2019-02-27T10:43:02.241Z,8.50
2019-02-27T10:45:31.370Z,8.50
2019-02-27T10:48:00.509Z,8.60
2019-02-27T10:50:29.678Z,8.80
2019-02-27T10:52:58.825Z,8.90
2019-02-27T10:55:27.943Z,9.00
2019-02-27T10:57:57.050Z,8.90
2019-02-27T11:00:29.485Z,8.90
2019-02-27T11:02:59.062Z,8.90
2019-02-27T11:05:29.193Z,9.00
2019-02-27T11:07:58.313Z,9.10
2019-02-27T11:10:27.401Z,9.00
2019-02-27T11:12:56.553Z,9.10
2019-02-27T11:15:25.731Z,9.10
2019-02-27T11:17:54.849Z,9.10
2019-02-27T11:20:24.670Z,9.10
2019-02-27T11:22:54.033Z,9.10
2019-02-27T11:25:23.633Z,9.00
2019-02-27T11:27:52.805Z,9.00
2019-02-27T11:30:24.362Z,9.00
2019-02-27T11:32:56.861Z,8.90
2019-02-27T11:35:25.149Z,9.00
2019-02-27T11:37:55.185Z,8.90
2019-02-27T11:40:24.619Z,9.00
2019-02-27T11:42:53.797Z,9.10
2019-02-27T11:45:24.712Z,9.10
2019-02-27T11:47:53.769Z,9.20
2019-02-27T11:50:22.933Z,9.20
2019-02-27T11:52:52.216Z,9.20
2019-02-27T11:55:21.481Z,9.20
2019-02-27T11:57:50.696Z,9.30
2019-02-27T12:00:26.017Z,9.30
2019-02-27T12:02:55.131Z,9.20
2019-02-27T12:05:24.319Z,9.20
2019-02-27T12:07:53.434Z,9.30
2019-02-27T12:10:23.813Z,9.20
2019-02-27T12:12:52.913Z,9.20
2019-02-27T12:15:22.153Z,9.20
2019-02-27T12:17:51.280Z,9.20
2019-02-27T12:20:21.372Z,9.30
2019-02-27T12:22:50.824Z,9.30
2019-02-27T12:25:20.141Z,9.30
2019-02-27T12:27:52.147Z,9.30
2019-02-27T12:30:21.865Z,9.40
2019-02-27T12:32:55.725Z,9.40
2019-02-27T12:35:23.848Z,9.40
2019-02-27T12:37:53.012Z,9.40
2019-02-27T12:40:24.966Z,9.40
2019-02-27T12:42:53.421Z,9.50
2019-02-27T12:45:25.870Z,9.50
2019-02-27T12:47:54.381Z,9.50
2019-02-27T12:50:26.911Z,9.60
2019-02-27T12:52:55.152Z,9.60
2019-02-27T12:55:25.185Z,9.60
2019-02-27T12:57:54.337Z,9.60
2019-02-27T13:00:25.952Z,9.60
2019-02-27T13:02:55.058Z,9.70
2019-02-27T13:05:26.717Z,9.80
2019-02-27T13:07:55.261Z,9.90
2019-02-27T13:10:24.475Z,10.10
2019-02-27T13:12:53.657Z,10.10
2019-02-27T13:15:23.526Z,10.10
2019-02-27T13:17:56.088Z,10.20
2019-02-27T13:20:25.177Z,10.20
2019-02-27T13:22:54.322Z,10.30
2019-02-27T13:25:24.268Z,10.30
2019-02-27T13:27:54.049Z,10.30
2019-02-27T13:30:23.187Z,10.30
2019-02-27T13:32:52.402Z,10.30
2019-02-27T13:35:22.994Z,10.40
2019-02-27T13:37:52.606Z,10.40
2019-02-27T13:40:21.932Z,10.40
2019-02-27T13:42:53.402Z,10.40
2019-02-27T13:45:23.718Z,10.40
2019-02-27T13:47:52.820Z,10.40
2019-02-27T13:50:23.586Z,10.40
2019-02-27T13:52:52.899Z,10.40
2019-02-27T13:55:22.142Z,10.50
2019-02-27T13:57:51.402Z,10.50
2019-02-27T14:00:26.145Z,10.60
2019-02-27T14:02:55.369Z,10.50
2019-02-27T14:05:24.656Z,10.60
2019-02-27T14:07:57.125Z,10.60
2019-02-27T14:10:26.446Z,10.60
2019-02-27T14:12:55.587Z,10.60
2019-02-27T14:15:27.386Z,10.70
2019-02-27T14:17:55.750Z,10.70
2019-02-27T14:20:26.942Z,10.70
2019-02-27T14:22:56.630Z,10.70
2019-02-27T14:25:31.068Z,10.60
2019-02-27T14:27:57.746Z,10.70
2019-02-27T14:30:32.274Z,10.70
2019-02-27T14:33:01.467Z,10.70
2019-02-27T14:35:35.226Z,10.70
2019-02-27T14:38:01.502Z,10.70
2019-02-27T14:40:30.618Z,10.70
2019-02-27T14:42:59.737Z,10.70
2019-02-27T14:45:28.905Z,10.70
2019-02-27T14:47:59.602Z,10.80
2019-02-27T14:50:33.558Z,10.70
2019-02-27T14:52:59.994Z,10.80
2019-02-27T14:55:29.113Z,10.70
2019-02-27T14:57:58.257Z,10.70
2019-02-27T15:00:29.222Z,10.70
2019-02-27T15:02:58.525Z,10.70
2019-02-27T15:05:27.697Z,10.60
2019-02-27T15:07:56.825Z,10.60
2019-02-27T15:10:26.110Z,10.60
2019-02-27T15:12:55.676Z,10.60
2019-02-27T15:15:26.769Z,10.60
2019-02-27T15:17:56.157Z,10.60
2019-02-27T15:20:26.086Z,10.50
2019-02-27T15:22:55.473Z,10.50
2019-02-27T15:25:24.621Z,10.50
2019-02-27T15:27:58.365Z,10.50
2019-02-27T15:30:25.885Z,10.50
2019-02-27T15:32:55.053Z,10.40
2019-02-27T15:35:24.189Z,10.40
2019-02-27T15:37:53.601Z,10.40
2019-02-27T15:40:28.526Z,10.40
2019-02-27T15:42:54.405Z,10.30
2019-02-27T15:45:23.593Z,10.30
2019-02-27T15:47:52.697Z,10.30
2019-02-27T15:50:23.434Z,10.30
2019-02-27T15:52:52.791Z,10.30
2019-02-27T15:55:21.885Z,10.20
2019-02-27T15:57:53.518Z,10.20
2019-02-27T16:00:22.603Z,10.20
2019-02-27T16:02:51.791Z,10.20
2019-02-27T16:05:20.898Z,10.10
2019-02-27T16:07:50.331Z,10.20
2019-02-27T16:10:20.785Z,10.10
2019-02-27T16:12:50.124Z,10.10
2019-02-27T16:15:19.597Z,10.00
2019-02-27T16:17:48.909Z,10.00
2019-02-27T16:20:18.771Z,10.00
2019-02-27T16:22:47.887Z,9.90
2019-02-27T16:25:20.078Z,9.90
2019-02-27T16:27:49.550Z,9.90
2019-02-27T16:30:21.000Z,9.90
2019-02-27T16:32:50.237Z,9.90
2019-02-27T16:35:19.329Z,9.90
2019-02-27T16:37:48.472Z,9.90
2019-02-27T16:40:18.872Z,9.90
2019-02-27T16:42:48.161Z,9.90
2019-02-27T16:45:19.181Z,9.80
2019-02-27T16:47:48.291Z,9.80
2019-02-27T16:50:23.914Z,9.70
2019-02-27T16:52:50.244Z,9.70
2019-02-27T16:55:20.691Z,9.70
2019-02-27T16:57:49.801Z,9.70
2019-02-27T17:00:21.443Z,9.70
2019-02-27T17:02:53.065Z,9.60
2019-02-27T17:05:22.396Z,9.60
2019-02-27T17:07:51.534Z,9.50
2019-02-27T17:10:23.358Z,9.50
2019-02-27T17:12:52.513Z,9.40
2019-02-27T17:15:21.681Z,9.30
2019-02-27T17:17:53.377Z,9.30
2019-02-27T17:20:21.638Z,9.20
2019-02-27T17:22:50.789Z,9.20
2019-02-27T17:25:19.886Z,9.20
2019-02-27T17:27:50.928Z,9.20
2019-02-27T17:30:25.114Z,9.10
2019-02-27T17:32:54.261Z,9.00
2019-02-27T17:35:24.170Z,9.10
2019-02-27T17:37:53.601Z,9.00
2019-02-27T17:40:22.797Z,9.00
2019-02-27T17:42:53.587Z,8.90
2019-02-27T17:45:23.057Z,8.90
2019-02-27T17:47:52.158Z,8.90
2019-02-27T17:50:21.289Z,8.80
2019-02-27T17:52:50.685Z,8.90
2019-02-27T17:55:19.828Z,8.80
2019-02-27T17:57:49.338Z,8.80
2019-02-27T18:00:24.198Z,8.80
2019-02-27T18:02:53.409Z,8.70
2019-02-27T18:05:25.502Z,8.70
2019-02-27T18:07:53.470Z,8.60
2019-02-27T18:10:22.582Z,8.70
2019-02-27T18:12:51.794Z,8.60
2019-02-27T18:15:21.315Z,8.60
2019-02-27T18:17:50.725Z,8.60
2019-02-27T18:20:24.136Z,8.60
2019-02-27T18:22:51.007Z,8.60
2019-02-27T18:25:20.225Z,8.60
2019-02-27T18:27:49.361Z,8.60
2019-02-27T18:30:18.823Z,8.50
2019-02-27T18:32:48.944Z,8.60
2019-02-27T18:35:18.213Z,8.60
2019-02-27T18:37:53.089Z,8.60
2019-02-27T18:40:18.421Z,8.60
2019-02-27T18:42:47.565Z,8.50
2019-02-27T18:45:17.105Z,8.50
2019-02-27T18:47:46.308Z,8.50
2019-02-27T18:50:15.651Z,8.50
2019-02-27T18:52:44.804Z,8.50
2019-02-27T18:55:14.147Z,8.50
2019-02-27T18:57:47.131Z,8.50
2019-02-27T19:00:17.805Z,8.50
2019-02-27T19:02:47.074Z,8.40
2019-02-27T19:05:16.449Z,8.40
2019-02-27T19:07:46.037Z,8.40
2019-02-27T19:10:16.281Z,8.40
2019-02-27T19:12:45.779Z,8.30
2019-02-27T19:15:16.913Z,8.30
2019-02-27T19:17:46.093Z,8.30
2019-02-27T19:20:18.068Z,8.30
2019-02-27T19:22:47.348Z,8.30
2019-02-27T19:25:16.465Z,8.30
2019-02-27T19:27:45.606Z,8.30
2019-02-27T19:30:16.550Z,8.40
2019-02-27T19:32:46.846Z,8.40
2019-02-27T19:35:21.013Z,8.30
2019-02-27T19:37:47.963Z,8.30
2019-02-27T19:40:18.841Z,8.30
2019-02-27T19:42:49.908Z,8.30
2019-02-27T19:45:19.086Z,8.30
2019-02-27T19:47:49.604Z,8.20
2019-02-27T19:50:19.220Z,8.20
2019-02-27T19:52:48.391Z,8.20
2019-02-27T19:55:17.721Z,8.20
2019-02-27T19:57:46.834Z,8.20
2019-02-27T20:00:18.302Z,8.20
2019-02-27T20:02:47.838Z,8.20
2019-02-27T20:05:19.151Z,8.20
2019-02-27T20:07:47.978Z,8.20
2019-02-27T20:10:17.694Z,8.20
2019-02-27T20:12:47.394Z,8.10
2019-02-27T20:15:18.154Z,8.10
2019-02-27T20:17:47.273Z,8.10
2019-02-27T20:20:17.756Z,8.10
2019-02-27T20:22:47.082Z,8.10
2019-02-27T20:25:17.930Z,8.10
2019-02-27T20:27:47.455Z,8.10
2019-02-27T20:30:18.042Z,8.10
2019-02-27T20:32:47.365Z,8.00
2019-02-27T20:35:17.302Z,8.00
2019-02-27T20:37:47.620Z,8.00
2019-02-27T20:40:17.025Z,8.00
2019-02-27T20:42:49.643Z,7.90
2019-02-27T20:45:17.452Z,7.90
2019-02-27T20:47:46.593Z,7.90
2019-02-27T20:50:21.989Z,7.90
2019-02-27T20:52:50.220Z,7.80
2019-02-27T20:55:19.536Z,7.80
2019-02-27T20:57:48.721Z,7.80
2019-02-27T21:00:18.073Z,7.80
2019-02-27T21:02:47.299Z,7.80
2019-02-27T21:05:16.681Z,7.80
2019-02-27T21:07:45.826Z,7.80
2019-02-27T21:10:20.962Z,7.80
2019-02-27T21:12:53.758Z,7.70
2019-02-27T21:15:18.895Z,7.70
2019-02-27T21:17:48.022Z,7.70
2019-02-27T21:20:17.460Z,7.80
2019-02-27T21:22:46.592Z,7.80
2019-02-27T21:25:15.864Z,7.80
2019-02-27T21:27:45.090Z,7.80
2019-02-27T21:30:18.934Z,7.70
2019-02-27T21:32:48.238Z,7.70
2019-02-27T21:35:17.481Z,7.70
2019-02-27T21:37:46.597Z,7.70
2019-02-27T21:40:15.936Z,7.70
2019-02-27T21:42:45.107Z,7.70
2019-02-27T21:45:15.653Z,7.70
2019-02-27T21:47:44.861Z,7.70
2019-02-27T21:50:15.849Z,7.70
2019-02-27T21:52:45.065Z,7.70
2019-02-27T21:55:14.394Z,7.60
2019-02-27T21:57:43.501Z,7.50
2019-02-27T22:00:16.047Z,7.50
2019-02-27T22:02:45.604Z,7.50
2019-02-27T22:05:18.653Z,7.40
2019-02-27T22:07:46.001Z,7.50
2019-02-27T22:10:19.676Z,7.50
2019-02-27T22:12:46.874Z,7.50
2019-02-27T22:15:21.846Z,7.50
2019-02-27T22:17:49.398Z,7.50
2019-02-27T22:20:18.501Z,7.50
2019-02-27T22:22:47.625Z,7.50
2019-02-27T22:25:16.909Z,7.40
2019-02-27T22:27:46.716Z,7.40
2019-02-27T22:30:16.825Z,7.40
2019-02-27T22:32:47.993Z,7.40
2019-02-27T22:35:16.789Z,7.40
2019-02-27T22:37:51.168Z,7.30
2019-02-27T22:40:17.960Z,7.40
2019-02-27T22:42:48.429Z,7.30
2019-02-27T22:45:18.707Z,7.40
2019-02-27T22:47:48.077Z,7.30
2019-02-27T22:50:17.406Z,7.30
2019-02-27T22:52:46.516Z,7.30
2019-02-27T22:55:15.704Z,7.20
2019-02-27T22:57:44.922Z,7.30
2019-02-27T23:00:29.447Z,7.20
2019-02-27T23:02:58.830Z,7.20
2019-02-27T23:05:28.117Z,7.20
2019-02-27T23:07:57.300Z,7.20
2019-02-27T23:10:28.156Z,7.20
2019-02-27T23:12:57.617Z,7.20
2019-02-27T23:15:26.741Z,7.20
2019-02-27T23:17:55.852Z,7.10
2019-02-27T23:20:24.963Z,7.20
2019-02-27T23:22:54.078Z,7.20
2019-02-27T23:25:23.201Z,7.20
2019-02-27T23:27:52.293Z,7.20
2019-02-27T23:30:21.414Z,7.10
2019-02-27T23:32:50.560Z,7.20
2019-02-27T23:35:19.681Z,7.20
2019-02-27T23:37:48.828Z,7.20
2019-02-27T23:40:18.150Z,7.20
2019-02-27T23:42:47.354Z,7.20
2019-02-27T23:45:16.501Z,7.20
2019-02-27T23:47:45.630Z,7.20
2019-02-27T23:50:14.925Z,7.30
2019-02-27T23:52:44.193Z,7.30
2019-02-27T23:55:13.461Z,7.30
2019-02-27T23:57:42.569Z,7.30
